Time;durP1;ratioP1;P1;durP2;ratioP2;P2;SDS_P1;SDS_P2;PMS_P1;PMS_P2;Temp;Humidity;BMP_temperature;BMP_pressure;BME280_temperature;BME280_humidity;BME280_pressure;Samples;Min_cycle;Max_cycle;Signal;HPM_P1;HPM_P2
2022/03/05 00:01:22;;;;;;;18.77;11.00;;;6.90;44.40;;;-142.21;49.90;112049.66;5080114;28;20438;-78
2022/03/05 00:03:49;;;;;;;16.37;10.53;;;6.90;44.50;;;-142.21;49.76;112049.66;5078089;28;20443;-79
2022/03/05 00:06:16;;;;;;;15.47;9.60;;;6.90;44.50;;;-142.21;49.65;112049.66;5074019;28;20538;-79
2022/03/05 00:08:45;;;;;;;13.65;9.93;;;6.80;44.60;;;-142.21;49.49;112049.66;5074308;28;20593;-78
2022/03/05 00:11:12;;;;;;;15.37;10.57;;;6.80;44.60;;;-142.21;49.96;112049.66;5073846;28;20753;-78
2022/03/05 00:13:40;;;;;;;15.27;10.43;;;6.80;44.70;;;-142.21;50.44;112049.66;5074300;28;20478;-79
2022/03/05 00:16:07;;;;;;;11.93;9.70;;;6.80;45.00;;;-142.21;51.67;112049.66;5073613;28;20247;-79
2022/03/05 00:18:35;;;;;;;14.33;10.33;;;6.80;44.60;;;-142.21;51.06;112049.66;5074281;28;20232;-79
2022/03/05 00:21:03;;;;;;;14.70;10.27;;;6.80;44.60;;;-142.21;51.13;112049.66;5061840;28;21031;-77
2022/03/05 00:23:30;;;;;;;16.48;11.57;;;6.90;44.60;;;-142.21;52.40;112049.66;5073008;28;20201;-78
2022/03/05 00:26:02;;;;;;;14.88;10.45;;;6.90;44.80;;;-142.21;52.16;112049.66;5078321;28;20288;-77
2022/03/05 00:28:30;;;;;;;14.00;10.00;;;6.70;45.10;;;-142.21;53.36;112049.66;5072321;28;20243;-78
2022/03/05 00:31:00;;;;;;;14.33;10.13;;;6.70;45.40;;;-142.21;53.06;112049.66;5073881;28;20233;-79
2022/03/05 00:33:27;;;;;;;12.98;10.45;;;6.40;45.50;;;-142.21;53.02;112049.66;5073306;28;20448;-79
2022/03/05 00:35:54;;;;;;;14.57;10.20;;;6.40;46.10;;;-142.21;53.35;112049.66;5074563;28;20208;-77
2022/03/05 00:38:22;;;;;;;15.68;10.68;;;6.30;45.90;;;-142.21;53.26;112049.66;5072851;28;20244;-78
2022/03/05 00:40:50;;;;;;;13.48;10.00;;;6.30;46.10;;;-142.21;54.14;112049.66;5074652;28;20201;-78
2022/03/05 00:43:18;;;;;;;15.50;10.95;;;6.30;46.20;;;-142.21;54.08;112049.66;5073876;28;20205;-78
2022/03/05 00:45:45;;;;;;;14.23;9.73;;;6.30;46.40;;;-142.21;53.75;112049.66;5073214;28;20217;-78
2022/03/05 00:48:18;;;;;;;14.55;10.65;;;6.30;46.20;;;-142.21;54.47;112049.66;5073756;28;20475;-77
2022/03/05 00:50:46;;;;;;;15.75;10.63;;;6.20;46.40;;;-142.21;55.54;112049.66;5057137;28;20288;-76
2022/03/05 00:53:16;;;;;;;15.05;10.50;;;6.20;46.50;;;-142.21;54.95;112049.66;5070818;28;20655;-78
2022/03/05 00:55:43;;;;;;;13.82;10.55;;;6.10;46.50;;;-142.21;54.90;112049.66;5082476;28;20223;-78
2022/03/05 00:58:10;;;;;;;14.82;11.07;;;6.20;46.50;;;-142.21;55.97;112049.66;5078759;28;20639;-79
2022/03/05 01:00:39;;;;;;;14.38;10.65;;;6.20;46.80;;;-142.21;56.00;112049.66;5077209;28;20296;-79
2022/03/05 01:03:06;;;;;;;15.35;10.48;;;6.20;46.80;;;-142.21;56.13;112049.66;5072959;28;20201;-77
2022/03/05 01:05:34;;;;;;;15.65;11.30;;;6.20;46.60;;;-142.21;56.15;112049.66;5076825;28;20192;-78
2022/03/05 01:08:01;;;;;;;14.48;10.70;;;6.10;46.80;;;-142.21;56.22;112049.66;5086648;28;20750;-78
2022/03/05 01:10:28;;;;;;;15.98;11.13;;;6.10;46.70;;;-142.21;56.52;112049.66;5073584;28;20254;-77
2022/03/05 01:12:55;;;;;;;14.73;11.00;;;6.10;47.00;;;-142.21;56.66;112049.66;5072527;28;20297;-78
2022/03/05 01:15:23;;;;;;;14.48;10.80;;;6.10;46.80;;;-142.21;57.07;112049.66;5058158;28;20295;-77
2022/03/05 01:17:51;;;;;;;12.65;9.70;;;6.20;47.20;;;-142.21;57.26;112049.66;5078764;28;20287;-77
2022/03/05 01:20:19;;;;;;;16.30;11.07;;;6.00;46.90;;;-142.21;59.69;112049.66;5073131;28;20197;-78
2022/03/05 01:22:46;;;;;;;14.77;10.48;;;5.90;47.20;;;-142.21;58.71;112049.66;5073560;28;20259;-78
2022/03/05 01:25:13;;;;;;;15.00;10.80;;;5.80;47.30;;;-142.21;60.00;112049.66;5073315;28;20197;-80
2022/03/05 01:27:41;;;;;;;14.77;10.57;;;5.80;47.70;;;-142.21;60.23;112049.66;5073676;28;20279;-79
2022/03/05 01:30:09;;;;;;;14.80;10.82;;;5.80;47.50;;;-142.21;59.28;112049.66;5072972;28;20296;-79
2022/03/05 01:32:36;;;;;;;13.65;10.30;;;5.70;47.80;;;-142.21;58.90;112049.66;5084535;28;20228;-79
2022/03/05 01:35:07;;;;;;;15.05;10.70;;;5.70;47.90;;;-142.21;59.22;112049.66;5072692;28;20288;-78
2022/03/05 01:37:34;;;;;;;14.13;10.20;;;5.70;48.10;;;-142.21;59.21;112049.66;5073935;28;20248;-79
2022/03/05 01:40:02;;;;;;;12.98;10.57;;;5.60;47.80;;;-142.21;59.74;112049.66;5072685;28;20224;-79
2022/03/05 01:42:29;;;;;;;13.93;10.13;;;5.70;47.60;;;-142.21;60.09;112049.66;5073018;28;20255;-80
2022/03/05 01:44:56;;;;;;;16.70;11.02;;;5.70;47.50;;;-142.21;60.48;112049.66;5074411;28;20201;-78
2022/03/05 01:47:24;;;;;;;16.00;10.95;;;5.80;47.50;;;-142.21;59.60;112049.66;5073116;28;20696;-78
2022/03/05 01:49:51;;;;;;;13.85;10.05;;;5.90;47.30;;;-142.21;61.03;112049.66;5059151;28;20205;-78
2022/03/05 01:52:20;;;;;;;12.95;10.13;;;6.00;47.20;;;-142.21;61.29;112049.66;5073069;28;20219;-80
2022/03/05 01:54:48;;;;;;;15.35;10.10;;;6.00;47.00;;;-142.21;61.72;112049.66;5072953;28;20241;-78
2022/03/05 01:57:16;;;;;;;15.80;9.95;;;6.10;46.90;;;-142.21;61.25;112049.66;5072981;28;20231;-79
2022/03/05 01:59:44;;;;;;;15.00;10.48;;;6.20;47.20;;;-142.21;61.06;112049.66;5073765;28;20287;-79
2022/03/05 02:02:11;;;;;;;15.80;10.52;;;6.10;46.60;;;-142.21;61.75;112049.66;5083703;28;20236;-78
2022/03/05 02:04:38;;;;;;;14.43;10.23;;;6.00;46.70;;;-142.21;61.41;112049.66;5071599;28;20233;-78
2022/03/05 02:07:06;;;;;;;13.93;10.55;;;6.00;46.70;;;-142.21;61.39;112049.66;5075527;28;20293;-78
2022/03/05 02:09:34;;;;;;;14.40;9.82;;;6.00;46.70;;;-142.21;61.01;112049.66;5078310;28;20206;-80
2022/03/05 02:12:02;;;;;;;13.98;10.50;;;6.00;46.70;;;-142.21;61.23;112049.66;5073780;28;20212;-78
2022/03/05 02:14:30;;;;;;;13.05;9.93;;;6.10;46.60;;;-142.21;60.55;112049.66;5077896;28;20238;-79
2022/03/05 02:16:57;;;;;;;15.45;10.52;;;6.00;46.50;;;-142.21;60.73;112049.66;5084543;28;20207;-78
2022/03/05 02:19:24;;;;;;;16.50;11.45;;;6.00;46.70;;;-142.21;61.69;112049.66;5072542;28;20259;-78
2022/03/05 02:21:53;;;;;;;15.38;10.43;;;6.00;46.90;;;-142.21;61.23;112049.66;5086141;28;20204;-78
2022/03/05 02:24:32;;;;;;;15.82;10.63;;;6.00;46.80;;;-142.21;63.30;112049.66;5080432;28;20243;-79
2022/03/05 02:27:01;;;;;;;12.23;10.00;;;5.80;47.00;;;-142.21;62.62;112049.66;5072339;28;20197;-79
2022/03/05 02:29:29;;;;;;;15.38;10.88;;;5.70;47.20;;;-142.21;63.65;112049.66;5072671;28;20240;-78
2022/03/05 02:31:56;;;;;;;14.32;10.27;;;5.80;47.00;;;-142.21;62.88;112049.66;5078606;28;20220;-78
2022/03/05 02:34:24;;;;;;;13.85;9.88;;;5.80;47.00;;;-142.21;61.74;112049.66;5072337;28;20317;-78
2022/03/05 02:36:53;;;;;;;15.27;9.90;;;5.80;46.90;;;-142.21;61.71;112049.66;5073034;28;20205;-78
2022/03/05 02:39:24;;;;;;;14.30;10.38;;;5.80;47.10;;;-142.21;61.53;112049.66;5072944;28;20251;-79
2022/03/05 02:41:51;;;;;;;14.95;10.75;;;5.70;47.10;;;-142.21;62.22;112049.66;5073323;28;20197;-80
2022/03/05 02:44:18;;;;;;;13.38;10.27;;;5.80;47.30;;;-142.21;62.53;112049.66;5073135;28;20205;-80
2022/03/05 02:46:45;;;;;;;14.95;10.15;;;5.80;46.90;;;-142.21;63.00;112049.66;5079921;28;20247;-80
2022/03/05 02:49:13;;;;;;;15.07;10.55;;;5.80;46.90;;;-142.21;63.00;112049.66;5072620;28;20688;-79
2022/03/05 02:51:40;;;;;;;14.68;10.07;;;5.80;46.90;;;-142.21;63.44;112049.66;5076124;28;20288;-79
2022/03/05 02:54:09;;;;;;;14.90;9.43;;;5.80;46.90;;;-142.21;62.85;112049.66;5096575;28;20236;-79
2022/03/05 02:56:37;;;;;;;13.80;9.88;;;5.80;47.20;;;-142.21;63.43;112049.66;5078734;28;20677;-79
2022/03/05 02:59:04;;;;;;;16.17;10.00;;;5.70;47.30;;;-142.21;63.19;112049.66;5078730;28;20193;-80
2022/03/05 03:01:31;;;;;;;14.02;8.98;;;5.60;48.30;;;-142.21;63.44;112049.66;5096267;28;20208;-79
2022/03/05 03:03:58;;;;;;;12.45;9.35;;;5.60;47.50;;;-142.21;63.35;112049.66;5088619;28;20235;-78
2022/03/05 03:06:26;;;;;;;14.52;10.27;;;5.60;47.50;;;-142.21;62.95;112049.66;5094976;28;20203;-77
2022/03/05 03:08:53;;;;;;;13.93;10.13;;;5.70;47.50;;;-142.21;63.91;112049.66;5100171;28;20232;-80
2022/03/05 03:11:22;;;;;;;13.57;10.30;;;5.60;47.70;;;-142.21;64.37;112049.66;5103579;28;20190;-78
2022/03/05 03:13:49;;;;;;;14.27;9.75;;;5.50;47.60;;;-142.21;64.41;112049.66;5100315;28;20192;-81
2022/03/05 03:16:16;;;;;;;12.73;9.68;;;5.40;47.90;;;-142.21;64.36;112049.66;5100018;28;20202;-79
2022/03/05 03:18:44;;;;;;;16.02;10.27;;;5.30;48.20;;;-142.21;64.12;112049.66;5095358;28;20205;-80
2022/03/05 03:21:11;;;;;;;13.85;10.18;;;5.30;48.60;;;-142.21;65.67;112049.66;5079085;28;20235;-77
2022/03/05 03:23:39;;;;;;;13.18;9.68;;;5.20;48.60;;;-142.21;65.63;112049.66;5074678;28;20292;-77
2022/03/05 03:26:06;;;;;;;13.27;9.75;;;5.20;48.50;;;-142.21;66.91;112049.66;5084212;28;20201;-76
2022/03/05 03:28:35;;;;;;;11.93;9.40;;;5.20;49.20;;;-142.21;67.17;112049.66;5078479;28;20245;-76
2022/03/05 03:31:02;;;;;;;12.70;9.70;;;5.10;49.30;;;-142.21;66.78;112049.66;5075100;28;20205;-76
2022/03/05 03:33:30;;;;;;;13.95;10.13;;;5.00;49.30;;;-142.21;66.75;112049.66;5075664;28;20232;-77
2022/03/05 03:35:57;;;;;;;14.75;9.60;;;5.00;49.50;;;-142.21;65.86;112049.66;5075537;28;20193;-78
2022/03/05 03:38:24;;;;;;;12.93;9.77;;;4.90;49.70;;;-142.21;68.33;112049.66;5091501;28;20334;-78
2022/03/05 03:40:54;;;;;;;12.35;9.60;;;4.80;50.10;;;-142.21;67.75;112049.66;5083787;28;20288;-77
2022/03/05 03:43:21;;;;;;;13.02;9.15;;;4.80;50.30;;;-142.21;67.38;112049.66;5076220;28;20292;-79
2022/03/05 03:45:50;;;;;;;14.13;9.77;;;4.90;50.40;;;-142.21;66.79;112049.66;5075775;28;20236;-77
2022/03/05 03:48:18;;;;;;;14.52;9.38;;;5.00;50.10;;;-142.21;67.85;112049.66;5075441;28;20236;-78
2022/03/05 03:50:45;;;;;;;14.57;9.82;;;5.00;49.90;;;-142.21;65.49;112049.66;5075457;28;20225;-77
2022/03/05 03:53:12;;;;;;;14.07;9.93;;;4.90;50.00;;;-142.21;65.89;112049.66;5074717;28;20316;-78
2022/03/05 03:55:41;;;;;;;11.93;9.20;;;4.90;49.90;;;-142.21;66.55;112049.66;5057858;28;20263;-77
2022/03/05 03:58:09;;;;;;;11.48;9.40;;;5.00;49.90;;;-142.21;67.50;112049.66;5075641;28;20193;-77
2022/03/05 04:00:36;;;;;;;13.68;9.82;;;5.00;50.10;;;-142.21;67.58;112049.66;5075456;28;20201;-78
2022/03/05 04:03:04;;;;;;;13.32;10.00;;;4.90;50.10;;;-142.21;67.42;112049.66;5077825;28;20292;-77
2022/03/05 04:05:32;;;;;;;14.32;10.05;;;4.90;50.20;;;-142.21;70.09;112049.66;5075768;28;20296;-78
2022/03/05 04:10:44;;;;;;;12.70;8.90;;;4.70;50.70;;;-142.21;69.10;112049.66;5058510;28;20242;-76
2022/03/05 04:13:11;;;;;;;13.00;9.52;;;4.70;50.60;;;-142.21;68.85;112049.66;5074707;28;20221;-78
2022/03/05 04:15:38;;;;;;;13.02;9.73;;;4.70;50.90;;;-142.21;70.00;112049.66;5074553;28;20296;-77
2022/03/05 04:18:07;;;;;;;13.63;9.27;;;4.70;50.80;;;-142.21;69.37;112049.66;5074920;28;20202;-77
2022/03/05 04:20:36;;;;;;;13.50;10.15;;;4.80;50.80;;;-142.21;69.85;112049.66;5075405;28;20301;-77
2022/03/05 04:23:03;;;;;;;13.90;9.80;;;4.70;51.00;;;-142.21;70.51;112049.66;5092138;28;20292;-78
2022/03/05 04:25:30;;;;;;;14.23;10.30;;;4.70;51.10;;;-142.21;70.80;112049.66;5074663;28;20217;-78
2022/03/05 04:27:58;;;;;;;15.65;10.48;;;4.60;51.20;;;-142.21;71.33;112049.66;5074531;28;20260;-77
2022/03/05 04:30:26;;;;;;;15.32;10.05;;;4.60;51.00;;;-142.21;74.10;112049.66;5074732;28;20243;-77
2022/03/05 04:32:53;;;;;;;11.85;9.10;;;4.70;51.00;;;-142.21;72.78;112049.66;5073500;28;20228;-78
2022/03/05 04:35:22;;;;;;;14.95;9.68;;;4.70;51.10;;;-142.21;71.47;112049.66;5074863;28;20225;-77
2022/03/05 04:37:51;;;;;;;14.05;10.70;;;4.80;50.80;;;-142.21;71.46;112049.66;5074198;28;20259;-78
2022/03/05 04:40:19;;;;;;;11.57;8.98;;;4.80;50.70;;;-142.21;71.31;112049.66;5074634;28;20213;-76
2022/03/05 04:42:46;;;;;;;13.23;9.77;;;4.80;50.50;;;-142.21;71.97;112049.66;5073745;28;20232;-77
2022/03/05 04:45:14;;;;;;;14.07;9.57;;;4.90;50.70;;;-142.21;72.46;112049.66;5074630;28;20654;-76
2022/03/05 04:47:43;;;;;;;12.85;9.82;;;4.80;50.80;;;-142.21;71.01;112049.66;5073554;28;20193;-77
2022/03/05 04:50:11;;;;;;;12.15;9.50;;;4.80;50.40;;;-142.21;72.01;112049.66;5074340;28;20259;-77
2022/03/05 04:52:41;;;;;;;13.98;9.63;;;4.90;50.40;;;-142.21;73.12;112049.66;5074021;28;20292;-77
2022/03/05 04:55:09;;;;;;;14.68;10.23;;;5.00;50.20;;;-142.21;73.03;112049.66;5074022;28;20315;-76
2022/03/05 04:57:37;;;;;;;15.55;10.00;;;5.10;49.80;;;-142.21;72.26;112049.66;5074058;28;20296;-78
2022/03/05 05:00:06;;;;;;;11.98;9.02;;;5.10;49.90;;;-142.21;73.11;112049.66;5073184;28;20201;-76
2022/03/05 05:02:33;;;;;;;14.48;9.85;;;5.10;49.90;;;-142.21;71.91;112049.66;5073223;28;20232;-77
2022/03/05 05:05:01;;;;;;;13.10;9.70;;;5.00;49.70;;;-142.21;72.43;112049.66;5073088;28;20292;-76
2022/03/05 05:07:28;;;;;;;12.43;9.68;;;5.00;49.80;;;-142.21;72.46;112049.66;5073273;28;20338;-77
2022/03/05 05:09:57;;;;;;;14.00;10.35;;;5.00;49.70;;;-142.21;73.17;112049.66;5078933;28;20303;-77
2022/03/05 05:12:24;;;;;;;13.02;10.07;;;5.10;49.50;;;-142.21;72.23;112049.66;5075759;28;20287;-76
2022/03/05 05:14:52;;;;;;;12.05;9.23;;;5.20;49.30;;;-142.21;72.80;112049.66;5072615;28;20205;-76
2022/03/05 05:17:19;;;;;;;13.35;10.00;;;5.20;49.10;;;-142.21;73.64;112049.66;5075353;28;20217;-76
2022/03/05 05:19:46;;;;;;;10.93;8.90;;;5.20;49.30;;;-142.21;73.15;112049.66;5072403;28;20251;-77
2022/03/05 05:22:13;;;;;;;14.10;10.05;;;5.10;49.10;;;-142.21;73.34;112049.66;5072070;28;20225;-75
2022/03/05 05:24:41;;;;;;;14.35;10.43;;;5.10;49.10;;;-142.21;73.35;112049.66;5073466;28;20240;-76
2022/03/05 05:27:10;;;;;;;13.85;9.93;;;5.10;49.30;;;-142.21;73.63;112049.66;5073144;28;20304;-75
2022/03/05 05:29:37;;;;;;;12.77;9.50;;;5.00;49.30;;;-142.21;73.79;112049.66;5073818;28;20292;-76
2022/03/05 05:32:05;;;;;;;13.60;9.95;;;5.00;49.30;;;-142.21;74.15;112049.66;5072594;28;20650;-79
2022/03/05 05:34:33;;;;;;;11.52;8.98;;;5.00;49.50;;;-142.21;74.69;112049.66;5072975;28;20270;-76
2022/03/05 05:37:00;;;;;;;15.23;9.90;;;5.00;49.10;;;-142.21;73.86;112049.66;5076266;28;20197;-75
2022/03/05 05:39:27;;;;;;;13.40;9.73;;;5.00;49.20;;;-142.21;73.91;112049.66;5071547;28;20201;-74
2022/03/05 05:41:55;;;;;;;13.38;9.45;;;5.10;49.20;;;-142.21;74.47;112049.66;5087785;28;20196;-74
2022/03/05 05:44:23;;;;;;;14.82;10.30;;;5.00;48.90;;;-142.21;75.29;112049.66;5077505;28;20207;-74
2022/03/05 05:46:51;;;;;;;12.65;9.23;;;5.00;49.20;;;-142.21;74.73;112049.66;5072870;28;20706;-76
2022/03/05 05:49:18;;;;;;;14.75;10.70;;;5.00;49.00;;;-142.21;75.10;112049.66;5086038;28;20614;-77
2022/03/05 05:51:45;;;;;;;11.77;8.93;;;5.00;49.00;;;-142.21;75.24;112049.66;5079955;28;20208;-76
2022/03/05 05:54:13;;;;;;;13.23;9.70;;;4.90;48.80;;;-142.21;75.01;112049.66;5078492;28;20232;-74
2022/03/05 05:56:41;;;;;;;12.30;9.40;;;4.90;49.20;;;-142.21;75.10;112049.66;5054153;28;20232;-75
2022/03/05 05:59:08;;;;;;;12.57;9.95;;;4.90;49.00;;;-142.21;75.27;112049.66;5072250;28;20275;-74
2022/03/05 06:01:37;;;;;;;16.35;10.75;;;4.90;49.20;;;-142.21;76.91;112049.66;5071608;28;20208;-74
2022/03/05 06:04:04;;;;;;;13.43;9.80;;;4.80;49.50;;;-142.21;75.83;112049.66;5072643;28;20571;-74
2022/03/05 06:06:32;;;;;;;13.43;10.23;;;4.80;49.90;;;-142.21;75.82;112049.66;5072479;28;20224;-75
2022/03/05 06:08:59;;;;;;;15.10;10.25;;;4.80;49.90;;;-142.21;76.49;112049.66;5071849;28;20224;-75
2022/03/05 06:11:30;;;;;;;13.25;9.63;;;4.70;50.00;;;-142.21;76.45;112049.66;5073113;28;20267;-74
2022/03/05 06:13:57;;;;;;;14.73;10.02;;;4.70;49.70;;;-142.21;76.54;112049.66;5074107;28;20296;-76
2022/03/05 06:16:25;;;;;;;15.20;10.15;;;4.70;49.60;;;-142.21;77.58;112049.66;5072028;28;20609;-74
2022/03/05 06:18:53;;;;;;;12.27;9.60;;;4.70;49.80;;;-142.21;78.22;112049.66;5073844;28;20255;-75
2022/03/05 06:21:21;;;;;;;12.30;10.05;;;4.60;49.70;;;-142.21;78.72;112049.66;5071849;28;20235;-74
2022/03/05 06:23:48;;;;;;;14.68;10.38;;;4.70;49.80;;;-142.21;78.56;112049.66;5071519;28;20194;-75
2022/03/05 06:26:15;;;;;;;12.40;9.80;;;4.80;49.60;;;-142.21;78.65;112049.66;5074401;28;20243;-74
2022/03/05 06:28:42;;;;;;;13.07;10.07;;;4.80;49.70;;;-142.21;78.81;112049.66;5077826;28;20257;-74
2022/03/05 06:31:10;;;;;;;13.70;9.48;;;4.80;49.80;;;-142.21;79.06;112049.66;5080211;28;20650;-75
2022/03/05 06:33:38;;;;;;;12.63;9.63;;;4.90;49.80;;;-142.21;79.22;112049.66;5076769;28;20194;-74
2022/03/05 06:36:07;;;;;;;17.20;11.40;;;5.00;49.80;;;-142.21;79.60;112049.66;5075734;28;20258;-74
2022/03/05 06:38:34;;;;;;;13.90;10.30;;;5.10;49.80;;;-142.21;78.77;112049.66;5075032;28;20251;-76
2022/03/05 06:41:02;;;;;;;13.10;10.40;;;5.20;49.90;;;-142.21;78.73;112049.66;5075678;28;20247;-74
2022/03/05 06:43:29;;;;;;;15.63;11.10;;;5.10;50.20;;;-142.21;78.70;112049.66;5074608;28;20201;-76
2022/03/05 06:45:56;;;;;;;12.35;9.57;;;5.10;50.20;;;-142.21;78.60;112049.66;5078695;28;20232;-74
2022/03/05 06:48:23;;;;;;;14.05;10.10;;;5.20;50.20;;;-142.21;78.14;112049.66;5074252;28;20205;-75
2022/03/05 06:50:51;;;;;;;14.75;10.48;;;5.30;50.20;;;-142.21;77.87;112049.66;5074843;28;20674;-76
2022/03/05 06:53:20;;;;;;;12.48;9.07;;;5.40;50.30;;;-142.21;77.39;112049.66;5074700;28;20249;-75
2022/03/05 06:55:47;;;;;;;12.57;10.13;;;5.50;50.30;;;-142.21;77.91;112049.66;5074524;28;20288;-76
2022/03/05 06:58:15;;;;;;;15.30;10.68;;;5.60;50.20;;;-142.21;78.52;112049.66;5069736;28;20201;-74
2022/03/05 07:00:43;;;;;;;12.70;9.23;;;5.70;49.60;;;-142.21;77.20;112049.66;5083575;28;20204;-75
2022/03/05 07:03:10;;;;;;;15.32;9.98;;;6.00;49.60;;;-142.21;77.32;112049.66;5075092;28;20233;-75
2022/03/05 07:05:38;;;;;;;13.80;10.60;;;6.20;49.30;;;-142.21;78.10;112049.66;5074355;28;20197;-74
2022/03/05 07:08:05;;;;;;;13.05;10.30;;;6.30;48.90;;;-142.21;76.24;112049.66;5074120;28;20633;-77
2022/03/05 07:10:34;;;;;;;14.73;11.50;;;6.40;49.00;;;-142.21;75.83;112049.66;5077853;28;20247;-75
2022/03/05 07:13:01;;;;;;;13.20;9.52;;;6.30;48.70;;;-142.21;76.37;112049.66;5088258;28;20243;-76
2022/03/05 07:15:29;;;;;;;14.20;10.93;;;6.30;48.90;;;-142.21;75.52;112049.66;5074790;28;20795;-75
2022/03/05 07:17:56;;;;;;;11.57;9.55;;;6.60;48.60;;;-142.21;73.22;112049.66;5074089;28;20232;-75
2022/03/05 07:20:24;;;;;;;12.57;10.10;;;7.20;47.90;;;-142.21;72.65;112049.66;5074811;28;20251;-75
2022/03/05 07:22:51;;;;;;;13.73;11.27;;;7.10;47.20;;;-142.21;72.13;112049.66;5083169;28;20205;-77
2022/03/05 07:25:19;;;;;;;14.05;11.23;;;6.90;47.70;;;-142.21;72.13;112049.66;5074346;28;20493;-75
2022/03/05 07:27:47;;;;;;;14.88;11.75;;;7.00;47.90;;;-142.21;70.44;112049.66;5074585;28;20201;-75
2022/03/05 07:30:15;;;;;;;16.92;11.18;;;6.90;47.70;;;-142.21;71.29;112049.66;5074277;28;20343;-76
2022/03/05 07:32:42;;;;;;;15.97;11.13;;;6.90;47.80;;;-142.21;68.83;112049.66;5074379;28;20209;-77
2022/03/05 07:35:10;;;;;;;15.45;10.93;;;6.60;47.60;;;-142.21;69.62;112049.66;5074179;28;20459;-78
2022/03/05 07:37:43;;;;;;;13.37;10.80;;;6.90;48.20;;;-142.21;72.32;112049.66;5077614;28;20209;-79
2022/03/05 07:40:12;;;;;;;13.30;11.00;;;8.00;46.70;;;-142.21;68.39;112049.66;5080430;28;20529;-78
2022/03/05 07:42:40;;;;;;;15.50;11.07;;;8.40;44.90;;;-142.21;69.61;112049.66;5092605;28;20550;-81
2022/03/05 07:45:15;;;;;;;13.03;11.13;;;7.80;45.20;;;-142.21;68.90;112049.66;5078468;28;20443;-82
2022/03/05 07:47:42;;;;;;;13.90;11.17;;;7.30;46.00;;;-142.21;68.16;112049.66;5074893;28;20482;-79
2022/03/05 07:50:10;;;;;;;14.90;11.23;;;7.10;46.80;;;-142.21;68.64;112049.66;5076118;28;20507;-79
2022/03/05 07:52:44;;;;;;;14.70;11.30;;;6.90;47.40;;;-142.21;67.97;112049.66;5083160;28;20530;-82
2022/03/05 07:55:11;;;;;;;16.00;11.75;;;6.70;47.60;;;-142.21;67.15;112049.66;5096286;28;20208;-82
2022/03/05 07:57:39;;;;;;;15.83;11.07;;;6.60;48.30;;;-142.21;67.77;112049.66;5096319;28;20209;-82
2022/03/05 08:00:08;;;;;;;13.68;10.73;;;6.80;48.10;;;-142.21;65.19;112049.66;5096223;28;20446;-84
2022/03/05 08:02:45;;;;;;;13.63;11.00;;;7.30;47.20;;;-142.21;66.39;112049.66;5092851;28;20288;-80
2022/03/05 08:05:14;;;;;;;15.17;11.40;;;7.50;46.20;;;-142.21;66.20;112049.66;5076543;28;20508;-81
2022/03/05 08:07:44;;;;;;;14.60;11.37;;;7.50;46.60;;;-142.21;65.23;112049.66;5075082;28;20523;-82
2022/03/05 08:10:15;;;;;;;16.73;11.43;;;7.40;46.60;;;-142.21;65.78;112049.66;5076623;28;20546;-82
2022/03/05 08:12:42;;;;;;;15.57;11.37;;;7.90;47.20;;;-142.21;65.62;112049.66;5072274;28;20449;-81
2022/03/05 08:15:12;;;;;;;15.23;11.30;;;7.80;46.40;;;-142.21;64.90;112049.66;5055509;28;20929;-81
2022/03/05 08:17:54;;;;;;;14.80;11.00;;;7.80;46.10;;;-142.21;65.68;112049.66;5073923;28;20547;-81
2022/03/05 08:20:23;;;;;;;16.50;11.87;;;7.80;46.20;;;-142.21;62.73;112049.66;5076085;28;20436;-82
2022/03/05 08:22:53;;;;;;;14.63;10.67;;;7.70;45.80;;;-142.21;63.11;112049.66;5080042;28;20451;-80
2022/03/05 08:25:22;;;;;;;13.47;10.60;;;7.80;46.00;;;-142.21;62.43;112049.66;5092606;28;20454;-78
2022/03/05 08:27:49;;;;;;;13.20;10.93;;;8.00;45.70;;;-142.21;61.91;112049.66;5074754;28;20455;-80
2022/03/05 08:30:18;;;;;;;15.20;11.10;;;8.00;45.40;;;-142.21;62.34;112049.66;5074869;28;20502;-79
2022/03/05 08:32:46;;;;;;;14.53;11.40;;;8.20;45.50;;;-142.21;61.71;112049.66;5074183;28;20537;-80
2022/03/05 08:35:18;;;;;;;15.00;11.37;;;8.30;45.20;;;-142.21;60.24;112049.66;5085616;28;20477;-74
2022/03/05 08:37:45;;;;;;;15.27;11.67;;;8.20;44.70;;;-142.21;60.68;112049.66;5075739;28;20955;-79
2022/03/05 08:40:15;;;;;;;15.53;11.67;;;8.20;45.30;;;-142.21;60.89;112049.66;5072822;28;20560;-78
2022/03/05 08:42:43;;;;;;;13.00;10.73;;;8.20;45.00;;;-142.21;59.39;112049.66;5072568;28;20444;-79
2022/03/05 08:45:12;;;;;;;14.33;11.30;;;8.30;45.40;;;-142.21;60.42;112049.66;5075095;28;20474;-76
2022/03/05 08:47:40;;;;;;;15.33;11.83;;;8.40;45.40;;;-142.21;57.80;112049.66;5081307;28;20889;-81
2022/03/05 08:50:09;;;;;;;15.20;11.80;;;8.60;45.00;;;-142.21;57.90;112049.66;5076679;28;20575;-75
2022/03/05 08:52:38;;;;;;;17.07;11.23;;;8.70;44.80;;;-142.21;58.34;112049.66;5072306;28;20862;-77
2022/03/05 08:55:07;;;;;;;15.00;11.77;;;8.70;45.30;;;-142.21;57.06;112049.66;5085244;28;20561;-80
2022/03/05 08:57:34;;;;;;;16.10;12.57;;;8.60;44.90;;;-142.21;56.30;112049.66;5090916;28;20538;-77
2022/03/05 09:00:01;;;;;;;15.73;12.40;;;8.80;44.80;;;-142.21;54.42;112049.66;5054432;28;20451;-76
2022/03/05 09:02:29;;;;;;;13.80;11.37;;;9.20;44.30;;;-142.21;55.79;112049.66;5076291;28;20807;-76
2022/03/05 09:04:56;;;;;;;15.97;12.50;;;9.50;44.10;;;-142.21;54.83;112049.66;5072080;28;20455;-78
2022/03/05 09:07:24;;;;;;;15.40;11.93;;;9.60;43.50;;;-142.21;54.30;112049.66;5077616;28;20478;-79
2022/03/05 09:09:53;;;;;;;14.17;11.27;;;9.90;43.30;;;-142.21;53.92;112049.66;5081613;28;21071;-78
2022/03/05 09:12:20;;;;;;;15.50;12.53;;;10.10;42.00;;;-142.21;51.45;112049.66;5083848;28;21003;-77
2022/03/05 09:14:48;;;;;;;14.27;12.17;;;10.50;41.20;;;-142.21;51.66;112049.66;5072722;28;20492;-78
2022/03/05 09:17:16;;;;;;;16.70;12.70;;;10.90;41.00;;;-142.21;50.15;112049.66;5076677;28;20460;-76
2022/03/05 09:19:43;;;;;;;15.67;13.17;;;11.50;40.20;;;-142.21;49.04;112049.66;5073938;28;20439;-82
2022/03/05 09:22:11;;;;;;;15.43;12.60;;;11.80;38.80;;;-142.21;47.05;112049.66;5075956;28;20485;-78
2022/03/05 09:24:38;;;;;;;14.27;12.03;;;12.30;38.40;;;-142.21;46.93;112049.66;5072274;28;20459;-82
2022/03/05 09:27:09;;;;;;;14.63;12.33;;;13.20;38.10;;;-142.21;46.76;112049.66;5072872;28;20531;-82
2022/03/05 09:29:36;;;;;;;13.57;12.27;;;14.50;37.30;;;-142.21;44.04;112049.66;5078294;28;20523;-81
2022/03/05 09:32:05;;;;;;;14.40;12.87;;;15.90;35.30;;;-142.21;44.16;112049.66;5092912;28;20450;-81
2022/03/05 09:34:33;;;;;;;14.57;13.17;;;17.20;33.50;;;-142.21;43.37;112049.66;5082407;28;20212;-81
2022/03/05 09:37:00;;;;;;;14.13;12.73;;;18.30;31.50;;;-142.21;42.89;112049.66;5086380;28;20287;-80
2022/03/05 09:39:27;;;;;;;15.00;13.50;;;19.20;30.20;;;-142.21;41.94;112049.66;5084401;28;20306;-77
2022/03/05 09:41:55;;;;;;;15.37;13.80;;;20.00;28.80;;;-142.21;41.30;112049.66;5074295;28;20201;-77
2022/03/05 09:44:24;;;;;;;14.20;12.90;;;20.50;27.90;;;-142.21;40.13;112049.66;5071582;28;20235;-76
2022/03/05 09:46:52;;;;;;;15.27;13.77;;;21.10;28.00;;;-142.21;39.46;112049.66;5071495;28;20274;-79
2022/03/05 09:49:19;;;;;;;14.60;13.20;;;21.50;26.80;;;-142.21;39.76;112049.66;5078146;28;20274;-77
2022/03/05 09:51:46;;;;;;;13.87;12.67;;;21.50;25.30;;;-142.21;38.99;112049.66;5072026;28;20645;-76
2022/03/05 09:54:14;;;;;;;12.70;11.50;;;21.60;25.30;;;-142.21;39.14;112049.66;5077178;28;20320;-76
2022/03/05 09:56:41;;;;;;;12.53;11.37;;;21.80;25.60;;;-142.21;36.99;112049.66;5075052;28;20236;-77
2022/03/05 09:59:08;;;;;;;13.60;12.40;;;22.10;24.70;;;-142.21;37.26;112049.66;5072377;28;20378;-77
2022/03/05 10:01:37;;;;;;;13.10;11.80;;;22.20;24.60;;;-142.21;35.46;112049.66;5075961;28;20252;-78